sensor_id;sensor_type;location;lat;lon;timestamp;pressure;altitude;pressure_sealevel;temperature
42119;BMP280;27783;42.782;23.274;2023-10-19T00:00:18;95642.09;;;8.22
42119;BMP280;27783;42.782;23.274;2023-10-19T00:02:46;95647.97;;;8.09
42119;BMP280;27783;42.782;23.274;2023-10-19T00:05:11;95641.66;;;8.16
42119;BMP280;27783;42.782;23.274;2023-10-19T00:07:39;95645.03;;;8.17
42119;BMP280;27783;42.782;23.274;2023-10-19T00:10:05;95635.75;;;8.26
42119;BMP280;27783;42.782;23.274;2023-10-19T00:12:31;95639.97;;;8.41
42119;BMP280;27783;42.782;23.274;2023-10-19T00:14:57;95636.25;;;8.45
42119;BMP280;27783;42.782;23.274;2023-10-19T00:17:23;95631.34;;;8.40
42119;BMP280;27783;42.782;23.274;2023-10-19T00:19:52;95628.34;;;8.42
42119;BMP280;27783;42.782;23.274;2023-10-19T00:22:32;95616.56;;;8.19
42119;BMP280;27783;42.782;23.274;2023-10-19T00:25:01;95619.69;;;7.96
42119;BMP280;27783;42.782;23.274;2023-10-19T00:27:28;95617.16;;;8.02
42119;BMP280;27783;42.782;23.274;2023-10-19T00:29:54;95614.81;;;7.94
42119;BMP280;27783;42.782;23.274;2023-10-19T00:32:27;95619.34;;;7.97
42119;BMP280;27783;42.782;23.274;2023-10-19T00:34:54;95623.88;;;7.97
42119;BMP280;27783;42.782;23.274;2023-10-19T00:37:21;95613.94;;;7.83
42119;BMP280;27783;42.782;23.274;2023-10-19T00:39:53;95620.00;;;7.87
42119;BMP280;27783;42.782;23.274;2023-10-19T00:42:22;95620.66;;;7.78
42119;BMP280;27783;42.782;23.274;2023-10-19T00:44:56;95616.13;;;7.75
42119;BMP280;27783;42.782;23.274;2023-10-19T00:47:29;95615.00;;;7.72
42119;BMP280;27783;42.782;23.274;2023-10-19T00:50:05;95622.81;;;7.69
42119;BMP280;27783;42.782;23.274;2023-10-19T00:52:37;95612.72;;;7.71
42119;BMP280;27783;42.782;23.274;2023-10-19T00:55:09;95616.78;;;7.65
42119;BMP280;27783;42.782;23.274;2023-10-19T00:57:39;95621.28;;;7.29
42119;BMP280;27783;42.782;23.274;2023-10-19T01:00:08;95616.88;;;6.76
42119;BMP280;27783;42.782;23.274;2023-10-19T01:02:37;95621.69;;;7.02
42119;BMP280;27783;42.782;23.274;2023-10-19T01:05:10;95620.97;;;7.05
42119;BMP280;27783;42.782;23.274;2023-10-19T01:07:39;95626.94;;;7.34
42119;BMP280;27783;42.782;23.274;2023-10-19T01:10:08;95623.09;;;7.25
42119;BMP280;27783;42.782;23.274;2023-10-19T01:12:33;95631.28;;;7.20
42119;BMP280;27783;42.782;23.274;2023-10-19T01:15:05;95628.31;;;7.22
42119;BMP280;27783;42.782;23.274;2023-10-19T01:17:33;95621.88;;;7.16
42119;BMP280;27783;42.782;23.274;2023-10-19T01:20:04;95621.41;;;7.07
42119;BMP280;27783;42.782;23.274;2023-10-19T01:25:32;95621.63;;;6.67
42119;BMP280;27783;42.782;23.274;2023-10-19T01:28:06;95611.19;;;6.70
42119;BMP280;27783;42.782;23.274;2023-10-19T01:30:34;95618.91;;;6.35
42119;BMP280;27783;42.782;23.274;2023-10-19T01:33:00;95621.91;;;5.90
42119;BMP280;27783;42.782;23.274;2023-10-19T01:35:25;95617.13;;;5.92
42119;BMP280;27783;42.782;23.274;2023-10-19T01:37:52;95628.09;;;5.60
42119;BMP280;27783;42.782;23.274;2023-10-19T01:40:17;95625.25;;;5.65
42119;BMP280;27783;42.782;23.274;2023-10-19T01:42:45;95628.84;;;6.01
42119;BMP280;27783;42.782;23.274;2023-10-19T01:45:11;95630.34;;;6.24
42119;BMP280;27783;42.782;23.274;2023-10-19T01:47:36;95637.03;;;6.47
42119;BMP280;27783;42.782;23.274;2023-10-19T01:50:02;95636.44;;;6.31
42119;BMP280;27783;42.782;23.274;2023-10-19T01:52:30;95635.06;;;5.71
42119;BMP280;27783;42.782;23.274;2023-10-19T01:54:57;95632.69;;;5.85
42119;BMP280;27783;42.782;23.274;2023-10-19T01:57:32;95628.22;;;5.85
42119;BMP280;27783;42.782;23.274;2023-10-19T02:00:00;95626.06;;;6.38
42119;BMP280;27783;42.782;23.274;2023-10-19T02:02:33;95626.06;;;6.63
42119;BMP280;27783;42.782;23.274;2023-10-19T02:05:00;95617.44;;;6.12
42119;BMP280;27783;42.782;23.274;2023-10-19T02:07:29;95618.66;;;6.18
42119;BMP280;27783;42.782;23.274;2023-10-19T02:09:54;95618.34;;;6.23
42119;BMP280;27783;42.782;23.274;2023-10-19T02:12:20;95620.63;;;6.24
42119;BMP280;27783;42.782;23.274;2023-10-19T02:14:47;95634.84;;;6.52
42119;BMP280;27783;42.782;23.274;2023-10-19T02:17:12;95631.53;;;5.82
42119;BMP280;27783;42.782;23.274;2023-10-19T02:19:40;95632.38;;;5.68
42119;BMP280;27783;42.782;23.274;2023-10-19T02:22:05;95627.75;;;5.80
42119;BMP280;27783;42.782;23.274;2023-10-19T02:24:33;95626.00;;;5.87
42119;BMP280;27783;42.782;23.274;2023-10-19T02:26:59;95618.91;;;5.48
42119;BMP280;27783;42.782;23.274;2023-10-19T02:29:26;95622.13;;;5.19
42119;BMP280;27783;42.782;23.274;2023-10-19T02:31:52;95625.28;;;5.28
42119;BMP280;27783;42.782;23.274;2023-10-19T02:34:19;95618.78;;;5.41
42119;BMP280;27783;42.782;23.274;2023-10-19T02:36:46;95615.72;;;5.57
42119;BMP280;27783;42.782;23.274;2023-10-19T02:39:13;95617.97;;;5.77
42119;BMP280;27783;42.782;23.274;2023-10-19T02:41:44;95613.44;;;5.96
42119;BMP280;27783;42.782;23.274;2023-10-19T02:44:14;95627.41;;;5.04
42119;BMP280;27783;42.782;23.274;2023-10-19T02:46:43;95637.50;;;4.69
42119;BMP280;27783;42.782;23.274;2023-10-19T02:49:11;95628.72;;;4.77
42119;BMP280;27783;42.782;23.274;2023-10-19T02:51:42;95628.28;;;4.56
42119;BMP280;27783;42.782;23.274;2023-10-19T02:54:11;95617.78;;;4.53
42119;BMP280;27783;42.782;23.274;2023-10-19T02:56:45;95623.63;;;4.32
42119;BMP280;27783;42.782;23.274;2023-10-19T02:59:19;95619.06;;;4.44
42119;BMP280;27783;42.782;23.274;2023-10-19T03:01:51;95621.31;;;4.79
42119;BMP280;27783;42.782;23.274;2023-10-19T03:04:17;95621.47;;;4.52
42119;BMP280;27783;42.782;23.274;2023-10-19T03:06:43;95620.84;;;5.10
42119;BMP280;27783;42.782;23.274;2023-10-19T03:09:09;95618.00;;;4.82
42119;BMP280;27783;42.782;23.274;2023-10-19T03:12:00;95626.06;;;4.25
42119;BMP280;27783;42.782;23.274;2023-10-19T03:14:29;95609.09;;;4.49
42119;BMP280;27783;42.782;23.274;2023-10-19T03:16:55;95612.22;;;4.73
42119;BMP280;27783;42.782;23.274;2023-10-19T03:19:21;95616.06;;;4.79
42119;BMP280;27783;42.782;23.274;2023-10-19T03:21:47;95626.06;;;4.58
42119;BMP280;27783;42.782;23.274;2023-10-19T03:24:16;95624.53;;;4.72
42119;BMP280;27783;42.782;23.274;2023-10-19T03:27:08;95618.66;;;4.94
42119;BMP280;27783;42.782;23.274;2023-10-19T03:29:47;95614.91;;;4.95
42119;BMP280;27783;42.782;23.274;2023-10-19T03:32:25;95610.91;;;5.00
42119;BMP280;27783;42.782;23.274;2023-10-19T03:34:57;95619.38;;;4.94
42119;BMP280;27783;42.782;23.274;2023-10-19T03:37:25;95615.53;;;4.88
42119;BMP280;27783;42.782;23.274;2023-10-19T03:39:51;95607.50;;;4.97
42119;BMP280;27783;42.782;23.274;2023-10-19T03:42:17;95612.00;;;4.63
42119;BMP280;27783;42.782;23.274;2023-10-19T03:44:42;95596.44;;;4.66
42119;BMP280;27783;42.782;23.274;2023-10-19T03:47:15;95605.19;;;4.25
42119;BMP280;27783;42.782;23.274;2023-10-19T03:49:55;95610.66;;;4.35
42119;BMP280;27783;42.782;23.274;2023-10-19T03:52:24;95602.44;;;4.51
42119;BMP280;27783;42.782;23.274;2023-10-19T03:54:55;95608.00;;;4.83
42119;BMP280;27783;42.782;23.274;2023-10-19T03:57:23;95602.38;;;5.22
42119;BMP280;27783;42.782;23.274;2023-10-19T03:59:58;95610.56;;;4.47
42119;BMP280;27783;42.782;23.274;2023-10-19T04:02:28;95610.66;;;4.35
42119;BMP280;27783;42.782;23.274;2023-10-19T04:05:06;95617.38;;;4.36
42119;BMP280;27783;42.782;23.274;2023-10-19T04:07:35;95611.41;;;4.69
42119;BMP280;27783;42.782;23.274;2023-10-19T04:10:02;95609.41;;;4.81
42119;BMP280;27783;42.782;23.274;2023-10-19T04:12:55;95607.94;;;5.20
42119;BMP280;27783;42.782;23.274;2023-10-19T04:15:20;95607.84;;;4.95
42119;BMP280;27783;42.782;23.274;2023-10-19T04:17:53;95603.16;;;5.04
42119;BMP280;27783;42.782;23.274;2023-10-19T04:20:20;95607.28;;;5.05
42119;BMP280;27783;42.782;23.274;2023-10-19T04:22:51;95602.47;;;5.25
42119;BMP280;27783;42.782;23.274;2023-10-19T04:25:18;95599.09;;;5.25
42119;BMP280;27783;42.782;23.274;2023-10-19T04:27:51;95598.88;;;5.15
42119;BMP280;27783;42.782;23.274;2023-10-19T04:30:17;95601.06;;;5.31
42119;BMP280;27783;42.782;23.274;2023-10-19T04:32:48;95597.38;;;5.14
42119;BMP280;27783;42.782;23.274;2023-10-19T04:35:17;95589.91;;;4.94
42119;BMP280;27783;42.782;23.274;2023-10-19T04:37:53;95588.44;;;5.15
42119;BMP280;27783;42.782;23.274;2023-10-19T04:40:20;95586.38;;;5.23
42119;BMP280;27783;42.782;23.274;2023-10-19T04:42:45;95591.41;;;5.13
42119;BMP280;27783;42.782;23.274;2023-10-19T04:45:11;95591.00;;;4.93
42119;BMP280;27783;42.782;23.274;2023-10-19T04:47:38;95585.72;;;4.89
42119;BMP280;27783;42.782;23.274;2023-10-19T04:50:05;95592.25;;;4.80
42119;BMP280;27783;42.782;23.274;2023-10-19T04:52:32;95578.00;;;4.59
42119;BMP280;27783;42.782;23.274;2023-10-19T04:54:58;95582.97;;;4.64
42119;BMP280;27783;42.782;23.274;2023-10-19T04:57:26;95580.97;;;4.95
42119;BMP280;27783;42.782;23.274;2023-10-19T04:59:51;95598.00;;;5.07
42119;BMP280;27783;42.782;23.274;2023-10-19T05:02:17;95582.00;;;5.09
42119;BMP280;27783;42.782;23.274;2023-10-19T05:04:43;95585.28;;;4.87
42119;BMP280;27783;42.782;23.274;2023-10-19T05:07:09;95586.69;;;5.00
42119;BMP280;27783;42.782;23.274;2023-10-19T05:09:38;95582.94;;;5.19
42119;BMP280;27783;42.782;23.274;2023-10-19T05:12:06;95578.06;;;4.81
42119;BMP280;27783;42.782;23.274;2023-10-19T05:14:41;95593.47;;;5.04
42119;BMP280;27783;42.782;23.274;2023-10-19T05:17:07;95593.91;;;5.28
42119;BMP280;27783;42.782;23.274;2023-10-19T05:19:35;95586.53;;;5.33
42119;BMP280;27783;42.782;23.274;2023-10-19T05:22:07;95588.94;;;5.42
42119;BMP280;27783;42.782;23.274;2023-10-19T05:24:33;95598.59;;;5.38
42119;BMP280;27783;42.782;23.274;2023-10-19T05:26:58;95591.50;;;5.79
42119;BMP280;27783;42.782;23.274;2023-10-19T05:29:24;95605.47;;;5.67
42119;BMP280;27783;42.782;23.274;2023-10-19T05:31:53;95610.50;;;5.57
42119;BMP280;27783;42.782;23.274;2023-10-19T05:34:23;95602.47;;;5.87
42119;BMP280;27783;42.782;23.274;2023-10-19T05:36:48;95603.28;;;5.91
42119;BMP280;27783;42.782;23.274;2023-10-19T05:39:17;95602.44;;;6.09
42119;BMP280;27783;42.782;23.274;2023-10-19T05:41:43;95609.44;;;6.02
42119;BMP280;27783;42.782;23.274;2023-10-19T05:44:09;95608.91;;;5.93
42119;BMP280;27783;42.782;23.274;2023-10-19T05:46:34;95611.84;;;6.14
42119;BMP280;27783;42.782;23.274;2023-10-19T05:49:01;95601.69;;;6.09
42119;BMP280;27783;42.782;23.274;2023-10-19T05:51:30;95609.34;;;6.20
42119;BMP280;27783;42.782;23.274;2023-10-19T05:53:56;95603.88;;;6.29
42119;BMP280;27783;42.782;23.274;2023-10-19T05:56:30;95616.78;;;6.44
42119;BMP280;27783;42.782;23.274;2023-10-19T05:58:56;95602.09;;;6.61
42119;BMP280;27783;42.782;23.274;2023-10-19T06:01:22;95603.75;;;6.76
42119;BMP280;27783;42.782;23.274;2023-10-19T06:03:47;95598.72;;;6.89
42119;BMP280;27783;42.782;23.274;2023-10-19T06:06:13;95616.13;;;7.04
42119;BMP280;27783;42.782;23.274;2023-10-19T06:08:43;95604.97;;;7.10
42119;BMP280;27783;42.782;23.274;2023-10-19T06:11:08;95620.06;;;7.20
42119;BMP280;27783;42.782;23.274;2023-10-19T06:13:34;95614.69;;;7.10
42119;BMP280;27783;42.782;23.274;2023-10-19T06:15:59;95587.22;;;7.32
42119;BMP280;27783;42.782;23.274;2023-10-19T06:18:25;95591.72;;;7.32
42119;BMP280;27783;42.782;23.274;2023-10-19T06:20:50;95589.03;;;7.25
42119;BMP280;27783;42.782;23.274;2023-10-19T06:23:17;95605.47;;;7.58
42119;BMP280;27783;42.782;23.274;2023-10-19T06:25:43;95605.19;;;8.05
42119;BMP280;27783;42.782;23.274;2023-10-19T06:28:10;95607.25;;;7.86
42119;BMP280;27783;42.782;23.274;2023-10-19T06:30:39;95620.16;;;8.01
42119;BMP280;27783;42.782;23.274;2023-10-19T06:33:07;95615.41;;;8.13
42119;BMP280;27783;42.782;23.274;2023-10-19T06:35:34;95614.25;;;8.14
42119;BMP280;27783;42.782;23.274;2023-10-19T06:38:03;95616.13;;;8.14
42119;BMP280;27783;42.782;23.274;2023-10-19T06:40:35;95622.16;;;8.17
42119;BMP280;27783;42.782;23.274;2023-10-19T06:43:04;95613.59;;;8.27
42119;BMP280;27783;42.782;23.274;2023-10-19T06:45:31;95618.69;;;8.52
42119;BMP280;27783;42.782;23.274;2023-10-19T06:47:57;95607.91;;;8.71
42119;BMP280;27783;42.782;23.274;2023-10-19T06:50:25;95596.63;;;8.67
42119;BMP280;27783;42.782;23.274;2023-10-19T06:52:50;95597.06;;;8.82
42119;BMP280;27783;42.782;23.274;2023-10-19T06:55:17;95588.47;;;8.92
42119;BMP280;27783;42.782;23.274;2023-10-19T06:57:47;95588.56;;;9.09
42119;BMP280;27783;42.782;23.274;2023-10-19T07:00:17;95581.84;;;9.15
42119;BMP280;27783;42.782;23.274;2023-10-19T07:02:47;95585.50;;;8.97
42119;BMP280;27783;42.782;23.274;2023-10-19T07:05:14;95586.38;;;9.25
42119;BMP280;27783;42.782;23.274;2023-10-19T07:07:44;95583.41;;;9.40
42119;BMP280;27783;42.782;23.274;2023-10-19T07:10:11;95590.19;;;9.48
42119;BMP280;27783;42.782;23.274;2023-10-19T07:12:38;95601.75;;;9.23
42119;BMP280;27783;42.782;23.274;2023-10-19T07:15:08;95596.22;;;9.62
42119;BMP280;27783;42.782;23.274;2023-10-19T07:17:35;95590.97;;;9.68
42119;BMP280;27783;42.782;23.274;2023-10-19T07:20:01;95583.47;;;9.67
42119;BMP280;27783;42.782;23.274;2023-10-19T07:22:28;95586.91;;;9.98
42119;BMP280;27783;42.782;23.274;2023-10-19T07:24:53;95585.78;;;9.85
42119;BMP280;27783;42.782;23.274;2023-10-19T07:27:20;95601.56;;;9.82
42119;BMP280;27783;42.782;23.274;2023-10-19T07:29:46;95590.66;;;9.83
42119;BMP280;27783;42.782;23.274;2023-10-19T07:32:13;95598.56;;;10.11
42119;BMP280;27783;42.782;23.274;2023-10-19T07:34:42;95604.59;;;10.15
42119;BMP280;27783;42.782;23.274;2023-10-19T07:37:07;95598.56;;;10.31
42119;BMP280;27783;42.782;23.274;2023-10-19T07:39:33;95607.22;;;10.32
42119;BMP280;27783;42.782;23.274;2023-10-19T07:42:00;95599.66;;;10.71
42119;BMP280;27783;42.782;23.274;2023-10-19T07:44:26;95611.38;;;10.39
42119;BMP280;27783;42.782;23.274;2023-10-19T07:46:52;95601.59;;;10.53
42119;BMP280;27783;42.782;23.274;2023-10-19T07:49:17;95609.09;;;10.17
42119;BMP280;27783;42.782;23.274;2023-10-19T07:51:49;95601.19;;;10.17
42119;BMP280;27783;42.782;23.274;2023-10-19T07:54:15;95598.22;;;10.29
42119;BMP280;27783;42.782;23.274;2023-10-19T07:56:41;95598.56;;;10.51
42119;BMP280;27783;42.782;23.274;2023-10-19T07:59:06;95603.31;;;11.04
42119;BMP280;27783;42.782;23.274;2023-10-19T08:01:32;95598.25;;;11.50
42119;BMP280;27783;42.782;23.274;2023-10-19T08:03:57;95599.09;;;11.23
42119;BMP280;27783;42.782;23.274;2023-10-19T08:06:23;95591.19;;;11.97
42119;BMP280;27783;42.782;23.274;2023-10-19T08:08:48;95587.53;;;11.81
42119;BMP280;27783;42.782;23.274;2023-10-19T08:11:15;95592.81;;;11.81
42119;BMP280;27783;42.782;23.274;2023-10-19T08:13:40;95588.06;;;12.08
42119;BMP280;27783;42.782;23.274;2023-10-19T08:16:06;95582.06;;;12.54
42119;BMP280;27783;42.782;23.274;2023-10-19T08:18:33;95580.31;;;13.13
42119;BMP280;27783;42.782;23.274;2023-10-19T08:21:02;95581.94;;;13.36
42119;BMP280;27783;42.782;23.274;2023-10-19T08:23:28;95582.28;;;13.38
42119;BMP280;27783;42.782;23.274;2023-10-19T08:25:57;95587.00;;;13.53
42119;BMP280;27783;42.782;23.274;2023-10-19T08:28:23;95586.75;;;13.70
42119;BMP280;27783;42.782;23.274;2023-10-19T08:30:49;95573.41;;;13.51
42119;BMP280;27783;42.782;23.274;2023-10-19T08:33:26;95573.72;;;13.85
42119;BMP280;27783;42.782;23.274;2023-10-19T08:35:53;95572.56;;;14.57
42119;BMP280;27783;42.782;23.274;2023-10-19T08:38:25;95560.22;;;14.25
42119;BMP280;27783;42.782;23.274;2023-10-19T08:40:51;95560.13;;;14.95
42119;BMP280;27783;42.782;23.274;2023-10-19T08:43:18;95564.13;;;14.84
42119;BMP280;27783;42.782;23.274;2023-10-19T08:45:44;95568.16;;;15.49
42119;BMP280;27783;42.782;23.274;2023-10-19T08:48:10;95567.69;;;14.97
42119;BMP280;27783;42.782;23.274;2023-10-19T08:50:37;95559.69;;;15.88
42119;BMP280;27783;42.782;23.274;2023-10-19T08:53:05;95561.06;;;14.63
42119;BMP280;27783;42.782;23.274;2023-10-19T08:55:32;95565.34;;;15.55
42119;BMP280;27783;42.782;23.274;2023-10-19T08:57:59;95560.06;;;15.71
42119;BMP280;27783;42.782;23.274;2023-10-19T09:00:25;95552.59;;;15.66
42119;BMP280;27783;42.782;23.274;2023-10-19T09:02:52;95551.97;;;16.12
42119;BMP280;27783;42.782;23.274;2023-10-19T09:05:18;95549.03;;;15.91
42119;BMP280;27783;42.782;23.274;2023-10-19T09:07:52;95538.91;;;16.49
42119;BMP280;27783;42.782;23.274;2023-10-19T09:10:25;95517.38;;;17.14
42119;BMP280;27783;42.782;23.274;2023-10-19T09:15:27;95510.22;;;17.75
42119;BMP280;27783;42.782;23.274;2023-10-19T09:17:53;95515.91;;;17.25
42119;BMP280;27783;42.782;23.274;2023-10-19T09:20:20;95510.16;;;17.91
42119;BMP280;27783;42.782;23.274;2023-10-19T09:22:54;95507.25;;;18.10
42119;BMP280;27783;42.782;23.274;2023-10-19T09:25:20;95505.03;;;18.53
42119;BMP280;27783;42.782;23.274;2023-10-19T09:27:47;95505.03;;;18.20
42119;BMP280;27783;42.782;23.274;2023-10-19T09:30:15;95497.66;;;18.57
42119;BMP280;27783;42.782;23.274;2023-10-19T09:32:46;95493.81;;;17.77
42119;BMP280;27783;42.782;23.274;2023-10-19T09:35:13;95488.69;;;17.94
42119;BMP280;27783;42.782;23.274;2023-10-19T09:37:41;95474.97;;;18.41
42119;BMP280;27783;42.782;23.274;2023-10-19T09:40:07;95474.25;;;18.61
42119;BMP280;27783;42.782;23.274;2023-10-19T09:42:39;95470.22;;;19.11
42119;BMP280;27783;42.782;23.274;2023-10-19T09:45:11;95471.09;;;17.97
42119;BMP280;27783;42.782;23.274;2023-10-19T09:47:38;95468.00;;;17.86
42119;BMP280;27783;42.782;23.274;2023-10-19T09:50:06;95477.47;;;17.75
42119;BMP280;27783;42.782;23.274;2023-10-19T09:52:36;95478.78;;;17.95
42119;BMP280;27783;42.782;23.274;2023-10-19T09:57:57;95473.63;;;18.12
42119;BMP280;27783;42.782;23.274;2023-10-19T10:00:25;95462.28;;;17.87
42119;BMP280;27783;42.782;23.274;2023-10-19T10:02:51;95464.56;;;18.55
42119;BMP280;27783;42.782;23.274;2023-10-19T10:10:46;95439.72;;;19.50
42119;BMP280;27783;42.782;23.274;2023-10-19T10:15:58;95436.00;;;19.77
42119;BMP280;27783;42.782;23.274;2023-10-19T10:18:30;95433.75;;;18.75
42119;BMP280;27783;42.782;23.274;2023-10-19T10:21:14;95445.69;;;18.83
42119;BMP280;27783;42.782;23.274;2023-10-19T10:23:49;95433.31;;;19.86
42119;BMP280;27783;42.782;23.274;2023-10-19T10:26:18;95429.22;;;19.55
42119;BMP280;27783;42.782;23.274;2023-10-19T10:28:49;95408.03;;;20.34
42119;BMP280;27783;42.782;23.274;2023-10-19T10:31:15;95408.81;;;19.87
42119;BMP280;27783;42.782;23.274;2023-10-19T10:33:49;95396.72;;;20.39
42119;BMP280;27783;42.782;23.274;2023-10-19T10:36:16;95380.25;;;21.33
42119;BMP280;27783;42.782;23.274;2023-10-19T10:38:46;95384.84;;;20.40
42119;BMP280;27783;42.782;23.274;2023-10-19T10:41:11;95378.38;;;19.94
42119;BMP280;27783;42.782;23.274;2023-10-19T10:43:51;95370.84;;;20.45
42119;BMP280;27783;42.782;23.274;2023-10-19T10:46:23;95346.63;;;21.87
42119;BMP280;27783;42.782;23.274;2023-10-19T10:48:49;95356.53;;;20.21
42119;BMP280;27783;42.782;23.274;2023-10-19T10:51:23;95339.44;;;20.28
42119;BMP280;27783;42.782;23.274;2023-10-19T10:53:50;95345.94;;;19.74
42119;BMP280;27783;42.782;23.274;2023-10-19T10:56:16;95340.75;;;19.97
42119;BMP280;27783;42.782;23.274;2023-10-19T10:58:42;95332.47;;;20.39
42119;BMP280;27783;42.782;23.274;2023-10-19T11:01:08;95324.75;;;20.32
42119;BMP280;27783;42.782;23.274;2023-10-19T11:03:35;95324.41;;;20.21
42119;BMP280;27783;42.782;23.274;2023-10-19T11:06:08;95322.78;;;20.41
42119;BMP280;27783;42.782;23.274;2023-10-19T11:08:34;95317.25;;;20.80
42119;BMP280;27783;42.782;23.274;2023-10-19T11:11:10;95301.97;;;21.75
42119;BMP280;27783;42.782;23.274;2023-10-19T11:13:38;95301.50;;;22.73
42119;BMP280;27783;42.782;23.274;2023-10-19T11:16:06;95306.13;;;21.53
42119;BMP280;27783;42.782;23.274;2023-10-19T11:20:58;95292.66;;;22.07
42119;BMP280;27783;42.782;23.274;2023-10-19T11:23:39;95284.38;;;21.74
42119;BMP280;27783;42.782;23.274;2023-10-19T11:26:05;95282.19;;;21.64
42119;BMP280;27783;42.782;23.274;2023-10-19T11:28:31;95280.41;;;20.98
42119;BMP280;27783;42.782;23.274;2023-10-19T11:31:18;95277.28;;;20.99
42119;BMP280;27783;42.782;23.274;2023-10-19T11:33:46;95276.75;;;20.87
42119;BMP280;27783;42.782;23.274;2023-10-19T11:36:13;95256.91;;;22.95
42119;BMP280;27783;42.782;23.274;2023-10-19T11:38:40;95248.47;;;22.31
42119;BMP280;27783;42.782;23.274;2023-10-19T11:41:06;95253.66;;;22.49
42119;BMP280;27783;42.782;23.274;2023-10-19T11:43:33;95250.53;;;22.64
42119;BMP280;27783;42.782;23.274;2023-10-19T11:45:59;95247.06;;;22.21
42119;BMP280;27783;42.782;23.274;2023-10-19T11:48:25;95251.41;;;22.33
42119;BMP280;27783;42.782;23.274;2023-10-19T11:50:51;95250.88;;;23.00
42119;BMP280;27783;42.782;23.274;2023-10-19T11:53:16;95241.44;;;22.90
42119;BMP280;27783;42.782;23.274;2023-10-19T11:55:42;95242.72;;;22.24
42119;BMP280;27783;42.782;23.274;2023-10-19T11:58:08;95246.31;;;22.21
42119;BMP280;27783;42.782;23.274;2023-10-19T12:00:39;95250.53;;;21.99
42119;BMP280;27783;42.782;23.274;2023-10-19T12:03:05;95237.13;;;21.99
42119;BMP280;27783;42.782;23.274;2023-10-19T12:05:31;95229.03;;;23.59
42119;BMP280;27783;42.782;23.274;2023-10-19T12:07:57;95229.19;;;22.89
42119;BMP280;27783;42.782;23.274;2023-10-19T12:10:22;95233.13;;;22.74
42119;BMP280;27783;42.782;23.274;2023-10-19T12:12:54;95224.09;;;23.38
42119;BMP280;27783;42.782;23.274;2023-10-19T12:15:23;95208.88;;;23.89
42119;BMP280;27783;42.782;23.274;2023-10-19T12:17:48;95207.00;;;22.60
42119;BMP280;27783;42.782;23.274;2023-10-19T12:20:15;95211.59;;;22.32
42119;BMP280;27783;42.782;23.274;2023-10-19T12:22:41;95209.78;;;23.27
42119;BMP280;27783;42.782;23.274;2023-10-19T12:25:07;95195.56;;;25.09
42119;BMP280;27783;42.782;23.274;2023-10-19T12:27:33;95199.59;;;23.89
42119;BMP280;27783;42.782;23.274;2023-10-19T12:29:58;95195.25;;;23.58
42119;BMP280;27783;42.782;23.274;2023-10-19T12:32:27;95191.22;;;23.88
42119;BMP280;27783;42.782;23.274;2023-10-19T12:34:52;95191.69;;;22.66
42119;BMP280;27783;42.782;23.274;2023-10-19T12:37:23;95184.28;;;23.09
42119;BMP280;27783;42.782;23.274;2023-10-19T12:39:49;95180.59;;;23.40
42119;BMP280;27783;42.782;23.274;2023-10-19T12:42:18;95174.31;;;24.31
42119;BMP280;27783;42.782;23.274;2023-10-19T12:44:43;95164.19;;;25.47
42119;BMP280;27783;42.782;23.274;2023-10-19T12:47:09;95173.66;;;24.36
42119;BMP280;27783;42.782;23.274;2023-10-19T12:49:41;95165.31;;;24.59
42119;BMP280;27783;42.782;23.274;2023-10-19T12:52:10;95176.28;;;23.28
42119;BMP280;27783;42.782;23.274;2023-10-19T12:54:36;95176.41;;;23.20
42119;BMP280;27783;42.782;23.274;2023-10-19T12:57:05;95175.00;;;22.76
42119;BMP280;27783;42.782;23.274;2023-10-19T12:59:35;95169.97;;;22.98
42119;BMP280;27783;42.782;23.274;2023-10-19T13:02:03;95153.03;;;24.58
42119;BMP280;27783;42.782;23.274;2023-10-19T13:04:29;95149.00;;;24.23
42119;BMP280;27783;42.782;23.274;2023-10-19T13:06:56;95147.94;;;22.80
42119;BMP280;27783;42.782;23.274;2023-10-19T13:09:24;95137.19;;;23.91
42119;BMP280;27783;42.782;23.274;2023-10-19T13:11:59;95135.06;;;25.15
42119;BMP280;27783;42.782;23.274;2023-10-19T13:14:25;95135.16;;;24.60
42119;BMP280;27783;42.782;23.274;2023-10-19T13:16:51;95121.50;;;25.10
42119;BMP280;27783;42.782;23.274;2023-10-19T13:19:18;95126.00;;;24.23
42119;BMP280;27783;42.782;23.274;2023-10-19T13:21:47;95118.75;;;23.65
42119;BMP280;27783;42.782;23.274;2023-10-19T13:24:14;95119.56;;;23.12
42119;BMP280;27783;42.782;23.274;2023-10-19T13:26:41;95112.53;;;23.54
42119;BMP280;27783;42.782;23.274;2023-10-19T13:29:11;95105.69;;;24.52
42119;BMP280;27783;42.782;23.274;2023-10-19T13:31:36;95086.84;;;24.57
42119;BMP280;27783;42.782;23.274;2023-10-19T13:34:01;95095.78;;;23.44
42119;BMP280;27783;42.782;23.274;2023-10-19T13:36:28;95100.34;;;23.58
42119;BMP280;27783;42.782;23.274;2023-10-19T13:38:54;95090.97;;;24.23
42119;BMP280;27783;42.782;23.274;2023-10-19T13:41:19;95096.78;;;23.66
42119;BMP280;27783;42.782;23.274;2023-10-19T13:43:45;95078.41;;;23.06
42119;BMP280;27783;42.782;23.274;2023-10-19T13:46:12;95086.22;;;22.09
42119;BMP280;27783;42.782;23.274;2023-10-19T13:48:38;95080.00;;;22.79
42119;BMP280;27783;42.782;23.274;2023-10-19T13:51:04;95079.91;;;22.26
42119;BMP280;27783;42.782;23.274;2023-10-19T13:53:40;95081.44;;;21.99
42119;BMP280;27783;42.782;23.274;2023-10-19T13:56:09;95072.09;;;22.56
42119;BMP280;27783;42.782;23.274;2023-10-19T13:58:35;95072.09;;;22.42
42119;BMP280;27783;42.782;23.274;2023-10-19T14:01:00;95068.47;;;22.45
42119;BMP280;27783;42.782;23.274;2023-10-19T14:03:26;95061.31;;;21.53
42119;BMP280;27783;42.782;23.274;2023-10-19T14:05:51;95058.72;;;21.21
42119;BMP280;27783;42.782;23.274;2023-10-19T14:08:19;95070.69;;;21.20
42119;BMP280;27783;42.782;23.274;2023-10-19T14:10:45;95067.09;;;21.37
42119;BMP280;27783;42.782;23.274;2023-10-19T14:13:12;95061.41;;;20.98
42119;BMP280;27783;42.782;23.274;2023-10-19T14:15:38;95049.56;;;20.90
42119;BMP280;27783;42.782;23.274;2023-10-19T14:18:04;95039.47;;;20.63
42119;BMP280;27783;42.782;23.274;2023-10-19T14:20:30;95035.38;;;20.76
42119;BMP280;27783;42.782;23.274;2023-10-19T14:22:56;95030.44;;;20.97
42119;BMP280;27783;42.782;23.274;2023-10-19T14:25:22;95030.34;;;21.15
42119;BMP280;27783;42.782;23.274;2023-10-19T14:27:50;95028.44;;;21.29